sensor_id;sensor_type;location;lat;lon;timestamp;P1;durP1;ratioP1;P2;durP2;ratioP2
72319;SDS011;60269;52.502;16.732;2023-09-18T00:03:02;14.75;;;7.82;;
72319;SDS011;60269;52.502;16.732;2023-09-18T00:06:35;14.85;;;7.40;;
72319;SDS011;60269;52.502;16.732;2023-09-18T00:10:07;14.53;;;7.57;;
72319;SDS011;60269;52.502;16.732;2023-09-18T00:13:39;15.53;;;7.83;;
72319;SDS011;60269;52.502;16.732;2023-09-18T00:17:12;14.88;;;7.47;;
72319;SDS011;60269;52.502;16.732;2023-09-18T00:20:44;15.52;;;7.22;;
72319;SDS011;60269;52.502;16.732;2023-09-18T00:24:17;15.40;;;7.67;;
72319;SDS011;60269;52.502;16.732;2023-09-18T00:27:49;14.03;;;8.07;;
72319;SDS011;60269;52.502;16.732;2023-09-18T00:31:23;14.85;;;7.68;;
72319;SDS011;60269;52.502;16.732;2023-09-18T00:34:55;14.07;;;7.63;;
72319;SDS011;60269;52.502;16.732;2023-09-18T00:38:28;15.10;;;8.13;;
72319;SDS011;60269;52.502;16.732;2023-09-18T00:42:00;15.60;;;8.10;;
72319;SDS011;60269;52.502;16.732;2023-09-18T00:45:32;17.65;;;8.88;;
72319;SDS011;60269;52.502;16.732;2023-09-18T00:49:04;17.52;;;10.27;;
72319;SDS011;60269;52.502;16.732;2023-09-18T00:52:37;16.90;;;7.73;;
72319;SDS011;60269;52.502;16.732;2023-09-18T00:56:09;14.93;;;8.25;;
72319;SDS011;60269;52.502;16.732;2023-09-18T00:59:42;15.10;;;8.05;;
72319;SDS011;60269;52.502;16.732;2023-09-18T01:03:14;15.03;;;8.23;;
72319;SDS011;60269;52.502;16.732;2023-09-18T01:06:49;18.00;;;8.03;;
72319;SDS011;60269;52.502;16.732;2023-09-18T01:10:21;15.75;;;8.63;;
72319;SDS011;60269;52.502;16.732;2023-09-18T01:14:17;17.98;;;8.20;;
72319;SDS011;60269;52.502;16.732;2023-09-18T01:18:03;14.33;;;8.37;;
72319;SDS011;60269;52.502;16.732;2023-09-18T01:21:35;19.27;;;8.20;;
72319;SDS011;60269;52.502;16.732;2023-09-18T01:25:07;17.60;;;8.68;;
72319;SDS011;60269;52.502;16.732;2023-09-18T01:28:39;16.15;;;8.82;;
72319;SDS011;60269;52.502;16.732;2023-09-18T01:32:11;20.53;;;8.40;;
72319;SDS011;60269;52.502;16.732;2023-09-18T01:35:44;16.10;;;9.45;;
72319;SDS011;60269;52.502;16.732;2023-09-18T01:39:17;17.73;;;10.23;;
72319;SDS011;60269;52.502;16.732;2023-09-18T01:42:51;21.45;;;8.82;;
72319;SDS011;60269;52.502;16.732;2023-09-18T01:46:24;17.73;;;9.67;;
72319;SDS011;60269;52.502;16.732;2023-09-18T01:49:56;17.85;;;10.10;;
72319;SDS011;60269;52.502;16.732;2023-09-18T01:53:30;19.92;;;9.57;;
72319;SDS011;60269;52.502;16.732;2023-09-18T01:57:03;17.10;;;9.57;;
72319;SDS011;60269;52.502;16.732;2023-09-18T02:00:36;17.17;;;9.07;;
72319;SDS011;60269;52.502;16.732;2023-09-18T02:04:09;22.70;;;11.50;;
72319;SDS011;60269;52.502;16.732;2023-09-18T02:08:01;23.17;;;10.68;;
72319;SDS011;60269;52.502;16.732;2023-09-18T02:11:36;21.17;;;10.70;;
72319;SDS011;60269;52.502;16.732;2023-09-18T02:15:12;19.03;;;10.30;;
72319;SDS011;60269;52.502;16.732;2023-09-18T02:18:44;21.98;;;10.40;;
72319;SDS011;60269;52.502;16.732;2023-09-18T02:22:23;18.63;;;8.98;;
72319;SDS011;60269;52.502;16.732;2023-09-18T02:26:00;19.03;;;10.17;;
72319;SDS011;60269;52.502;16.732;2023-09-18T02:29:35;22.67;;;9.83;;
72319;SDS011;60269;52.502;16.732;2023-09-18T02:33:11;19.98;;;10.77;;
72319;SDS011;60269;52.502;16.732;2023-09-18T02:36:43;20.85;;;11.20;;
72319;SDS011;60269;52.502;16.732;2023-09-18T02:40:15;18.90;;;10.00;;
72319;SDS011;60269;52.502;16.732;2023-09-18T02:43:47;19.80;;;10.70;;
72319;SDS011;60269;52.502;16.732;2023-09-18T02:47:21;21.63;;;10.65;;
72319;SDS011;60269;52.502;16.732;2023-09-18T02:50:53;19.63;;;10.87;;
72319;SDS011;60269;52.502;16.732;2023-09-18T02:54:25;19.67;;;10.10;;
72319;SDS011;60269;52.502;16.732;2023-09-18T02:57:58;18.77;;;10.93;;
72319;SDS011;60269;52.502;16.732;2023-09-18T03:01:30;23.30;;;11.77;;
72319;SDS011;60269;52.502;16.732;2023-09-18T03:05:02;22.57;;;11.40;;
72319;SDS011;60269;52.502;16.732;2023-09-18T03:08:36;20.67;;;12.13;;
72319;SDS011;60269;52.502;16.732;2023-09-18T03:12:08;22.35;;;11.85;;
72319;SDS011;60269;52.502;16.732;2023-09-18T03:15:43;21.93;;;12.87;;
72319;SDS011;60269;52.502;16.732;2023-09-18T03:19:16;20.40;;;11.93;;
72319;SDS011;60269;52.502;16.732;2023-09-18T03:22:59;21.35;;;12.23;;
72319;SDS011;60269;52.502;16.732;2023-09-18T03:26:32;21.23;;;12.00;;
72319;SDS011;60269;52.502;16.732;2023-09-18T03:30:05;20.30;;;11.73;;
72319;SDS011;60269;52.502;16.732;2023-09-18T03:33:40;24.30;;;13.10;;
72319;SDS011;60269;52.502;16.732;2023-09-18T03:37:12;23.48;;;12.60;;
72319;SDS011;60269;52.502;16.732;2023-09-18T03:40:44;25.35;;;13.20;;
72319;SDS011;60269;52.502;16.732;2023-09-18T03:44:16;25.47;;;13.33;;
72319;SDS011;60269;52.502;16.732;2023-09-18T03:47:48;24.60;;;13.20;;
72319;SDS011;60269;52.502;16.732;2023-09-18T03:51:22;25.48;;;12.93;;
72319;SDS011;60269;52.502;16.732;2023-09-18T03:54:53;27.23;;;13.97;;
72319;SDS011;60269;52.502;16.732;2023-09-18T03:58:26;28.07;;;14.43;;
72319;SDS011;60269;52.502;16.732;2023-09-18T04:01:58;30.65;;;14.63;;
72319;SDS011;60269;52.502;16.732;2023-09-18T04:05:30;25.80;;;13.88;;
72319;SDS011;60269;52.502;16.732;2023-09-18T04:09:02;27.77;;;14.93;;
72319;SDS011;60269;52.502;16.732;2023-09-18T04:12:35;24.57;;;14.00;;
72319;SDS011;60269;52.502;16.732;2023-09-18T04:16:07;31.15;;;13.43;;
72319;SDS011;60269;52.502;16.732;2023-09-18T04:19:39;26.42;;;13.55;;
72319;SDS011;60269;52.502;16.732;2023-09-18T04:23:18;29.37;;;14.73;;
72319;SDS011;60269;52.502;16.732;2023-09-18T04:26:54;28.63;;;15.57;;
72319;SDS011;60269;52.502;16.732;2023-09-18T04:30:26;28.60;;;15.82;;
72319;SDS011;60269;52.502;16.732;2023-09-18T04:33:58;30.38;;;14.82;;
72319;SDS011;60269;52.502;16.732;2023-09-18T04:37:30;25.87;;;14.93;;
72319;SDS011;60269;52.502;16.732;2023-09-18T04:41:02;27.10;;;14.80;;
72319;SDS011;60269;52.502;16.732;2023-09-18T04:44:34;28.55;;;15.93;;
72319;SDS011;60269;52.502;16.732;2023-09-18T04:48:08;26.48;;;14.40;;
72319;SDS011;60269;52.502;16.732;2023-09-18T04:51:40;30.80;;;15.43;;
72319;SDS011;60269;52.502;16.732;2023-09-18T04:55:13;26.27;;;14.27;;
72319;SDS011;60269;52.502;16.732;2023-09-18T04:58:45;28.95;;;15.30;;
72319;SDS011;60269;52.502;16.732;2023-09-18T05:02:17;26.33;;;14.55;;
72319;SDS011;60269;52.502;16.732;2023-09-18T05:05:49;28.60;;;14.53;;
72319;SDS011;60269;52.502;16.732;2023-09-18T05:09:22;22.43;;;14.40;;
72319;SDS011;60269;52.502;16.732;2023-09-18T05:12:53;24.77;;;14.63;;
72319;SDS011;60269;52.502;16.732;2023-09-18T05:16:31;26.55;;;14.20;;
72319;SDS011;60269;52.502;16.732;2023-09-18T05:20:06;23.43;;;12.87;;
72319;SDS011;60269;52.502;16.732;2023-09-18T05:23:39;23.38;;;13.77;;
72319;SDS011;60269;52.502;16.732;2023-09-18T05:27:11;22.35;;;13.70;;
72319;SDS011;60269;52.502;16.732;2023-09-18T05:30:44;21.52;;;12.90;;
72319;SDS011;60269;52.502;16.732;2023-09-18T05:34:16;21.80;;;12.97;;
72319;SDS011;60269;52.502;16.732;2023-09-18T05:37:48;22.85;;;13.63;;
72319;SDS011;60269;52.502;16.732;2023-09-18T05:41:21;21.20;;;13.18;;
72319;SDS011;60269;52.502;16.732;2023-09-18T05:44:57;19.87;;;12.33;;
72319;SDS011;60269;52.502;16.732;2023-09-18T05:48:30;22.87;;;12.30;;
72319;SDS011;60269;52.502;16.732;2023-09-18T05:52:03;21.40;;;12.32;;
72319;SDS011;60269;52.502;16.732;2023-09-18T05:55:35;19.60;;;11.30;;
72319;SDS011;60269;52.502;16.732;2023-09-18T05:59:07;24.97;;;12.63;;
72319;SDS011;60269;52.502;16.732;2023-09-18T06:02:39;19.20;;;11.83;;
72319;SDS011;60269;52.502;16.732;2023-09-18T06:06:13;19.80;;;11.32;;
72319;SDS011;60269;52.502;16.732;2023-09-18T06:09:45;16.88;;;10.85;;
72319;SDS011;60269;52.502;16.732;2023-09-18T06:13:18;19.30;;;10.63;;
72319;SDS011;60269;52.502;16.732;2023-09-18T06:16:50;16.93;;;9.77;;
72319;SDS011;60269;52.502;16.732;2023-09-18T06:20:22;16.90;;;10.00;;
72319;SDS011;60269;52.502;16.732;2023-09-18T06:23:54;18.08;;;9.82;;
72319;SDS011;60269;52.502;16.732;2023-09-18T06:27:26;14.63;;;9.03;;
72319;SDS011;60269;52.502;16.732;2023-09-18T06:30:58;18.98;;;9.68;;
72319;SDS011;60269;52.502;16.732;2023-09-18T06:34:30;15.35;;;8.43;;
72319;SDS011;60269;52.502;16.732;2023-09-18T06:38:02;16.98;;;8.27;;
72319;SDS011;60269;52.502;16.732;2023-09-18T06:41:37;11.93;;;8.00;;
72319;SDS011;60269;52.502;16.732;2023-09-18T06:45:08;14.45;;;7.68;;
72319;SDS011;60269;52.502;16.732;2023-09-18T06:48:41;11.20;;;7.30;;
72319;SDS011;60269;52.502;16.732;2023-09-18T06:52:17;13.15;;;6.70;;
72319;SDS011;60269;52.502;16.732;2023-09-18T06:55:49;11.37;;;6.53;;
72319;SDS011;60269;52.502;16.732;2023-09-18T06:59:21;12.30;;;6.80;;
72319;SDS011;60269;52.502;16.732;2023-09-18T07:02:54;13.52;;;6.47;;
72319;SDS011;60269;52.502;16.732;2023-09-18T07:06:26;13.47;;;7.10;;
72319;SDS011;60269;52.502;16.732;2023-09-18T07:09:58;16.00;;;7.77;;
72319;SDS011;60269;52.502;16.732;2023-09-18T07:13:36;12.15;;;6.70;;
72319;SDS011;60269;52.502;16.732;2023-09-18T07:17:08;11.10;;;6.40;;
72319;SDS011;60269;52.502;16.732;2023-09-18T07:20:41;11.33;;;6.67;;
72319;SDS011;60269;52.502;16.732;2023-09-18T07:24:15;11.00;;;6.07;;
72319;SDS011;60269;52.502;16.732;2023-09-18T07:27:51;13.45;;;6.85;;
72319;SDS011;60269;52.502;16.732;2023-09-18T07:31:23;14.85;;;6.53;;
72319;SDS011;60269;52.502;16.732;2023-09-18T07:34:55;12.60;;;6.10;;
72319;SDS011;60269;52.502;16.732;2023-09-18T07:38:27;12.67;;;6.50;;
72319;SDS011;60269;52.502;16.732;2023-09-18T07:41:59;14.48;;;6.25;;
72319;SDS011;60269;52.502;16.732;2023-09-18T07:45:31;11.65;;;6.50;;
72319;SDS011;60269;52.502;16.732;2023-09-18T07:49:05;11.47;;;5.43;;
72319;SDS011;60269;52.502;16.732;2023-09-18T07:52:37;9.13;;;5.53;;
72319;SDS011;60269;52.502;16.732;2023-09-18T07:56:09;12.48;;;7.45;;
72319;SDS011;60269;52.502;16.732;2023-09-18T07:59:42;11.55;;;7.13;;
72319;SDS011;60269;52.502;16.732;2023-09-18T08:03:14;8.77;;;6.00;;
72319;SDS011;60269;52.502;16.732;2023-09-18T08:06:47;11.10;;;5.97;;
72319;SDS011;60269;52.502;16.732;2023-09-18T08:10:18;14.10;;;9.25;;
72319;SDS011;60269;52.502;16.732;2023-09-18T08:13:50;11.75;;;8.70;;
72319;SDS011;60269;52.502;16.732;2023-09-18T08:17:22;11.83;;;8.93;;
72319;SDS011;60269;52.502;16.732;2023-09-18T08:20:55;12.77;;;9.27;;
72319;SDS011;60269;52.502;16.732;2023-09-18T08:24:29;11.80;;;9.07;;
72319;SDS011;60269;52.502;16.732;2023-09-18T08:28:02;10.65;;;8.40;;
72319;SDS011;60269;52.502;16.732;2023-09-18T08:31:35;10.50;;;7.72;;
72319;SDS011;60269;52.502;16.732;2023-09-18T08:35:08;11.53;;;9.17;;
72319;SDS011;60269;52.502;16.732;2023-09-18T08:38:40;10.38;;;9.27;;
72319;SDS011;60269;52.502;16.732;2023-09-18T08:42:13;11.82;;;8.75;;
72319;SDS011;60269;52.502;16.732;2023-09-18T08:45:54;9.07;;;5.70;;
72319;SDS011;60269;52.502;16.732;2023-09-18T08:49:27;10.40;;;5.63;;
72319;SDS011;60269;52.502;16.732;2023-09-18T08:53:01;8.88;;;5.38;;
72319;SDS011;60269;52.502;16.732;2023-09-18T08:56:37;8.85;;;5.13;;
72319;SDS011;60269;52.502;16.732;2023-09-18T09:00:10;9.63;;;5.33;;
72319;SDS011;60269;52.502;16.732;2023-09-18T09:03:48;9.17;;;5.33;;
72319;SDS011;60269;52.502;16.732;2023-09-18T09:07:20;12.45;;;5.55;;
72319;SDS011;60269;52.502;16.732;2023-09-18T09:10:52;8.60;;;5.28;;
72319;SDS011;60269;52.502;16.732;2023-09-18T09:14:24;9.85;;;5.80;;
72319;SDS011;60269;52.502;16.732;2023-09-18T09:18:06;12.43;;;5.57;;
72319;SDS011;60269;52.502;16.732;2023-09-18T09:21:41;9.45;;;4.90;;
72319;SDS011;60269;52.502;16.732;2023-09-18T09:25:22;8.00;;;4.47;;
72319;SDS011;60269;52.502;16.732;2023-09-18T09:28:57;10.27;;;4.87;;
72319;SDS011;60269;52.502;16.732;2023-09-18T09:32:47;12.03;;;4.97;;
72319;SDS011;60269;52.502;16.732;2023-09-18T09:36:21;9.48;;;4.85;;
72319;SDS011;60269;52.502;16.732;2023-09-18T09:39:54;12.68;;;5.18;;
72319;SDS011;60269;52.502;16.732;2023-09-18T09:43:27;10.73;;;5.53;;
72319;SDS011;60269;52.502;16.732;2023-09-18T09:47:00;10.50;;;5.70;;
72319;SDS011;60269;52.502;16.732;2023-09-18T09:50:33;8.90;;;5.13;;
72319;SDS011;60269;52.502;16.732;2023-09-18T09:54:06;10.27;;;5.43;;
72319;SDS011;60269;52.502;16.732;2023-09-18T09:57:46;10.03;;;5.53;;
72319;SDS011;60269;52.502;16.732;2023-09-18T10:01:23;8.70;;;4.90;;
72319;SDS011;60269;52.502;16.732;2023-09-18T10:04:55;7.85;;;5.10;;
72319;SDS011;60269;52.502;16.732;2023-09-18T10:08:28;11.32;;;4.88;;
72319;SDS011;60269;52.502;16.732;2023-09-18T10:12:03;10.23;;;4.97;;
72319;SDS011;60269;52.502;16.732;2023-09-18T10:15:43;8.20;;;4.93;;
72319;SDS011;60269;52.502;16.732;2023-09-18T10:19:24;8.52;;;4.95;;
72319;SDS011;60269;52.502;16.732;2023-09-18T10:27:27;8.93;;;4.53;;
72319;SDS011;60269;52.502;16.732;2023-09-18T10:31:00;12.93;;;5.33;;
72319;SDS011;60269;52.502;16.732;2023-09-18T10:34:33;9.27;;;5.00;;
72319;SDS011;60269;52.502;16.732;2023-09-18T10:38:06;9.43;;;4.95;;
72319;SDS011;60269;52.502;16.732;2023-09-18T10:41:38;7.40;;;4.60;;
72319;SDS011;60269;52.502;16.732;2023-09-18T10:45:12;8.33;;;6.90;;
72319;SDS011;60269;52.502;16.732;2023-09-18T10:48:44;7.30;;;4.85;;
72319;SDS011;60269;52.502;16.732;2023-09-18T10:52:20;9.63;;;4.97;;
72319;SDS011;60269;52.502;16.732;2023-09-18T10:55:53;8.13;;;4.63;;
72319;SDS011;60269;52.502;16.732;2023-09-18T10:59:27;8.93;;;5.30;;
72319;SDS011;60269;52.502;16.732;2023-09-18T11:07:01;10.52;;;5.10;;
72319;SDS011;60269;52.502;16.732;2023-09-18T11:10:34;11.37;;;4.33;;
72319;SDS011;60269;52.502;16.732;2023-09-18T11:14:10;10.10;;;4.37;;
72319;SDS011;60269;52.502;16.732;2023-09-18T11:17:43;10.73;;;5.13;;
72319;SDS011;60269;52.502;16.732;2023-09-18T11:21:15;10.85;;;5.35;;
72319;SDS011;60269;52.502;16.732;2023-09-18T11:24:50;9.67;;;5.20;;
72319;SDS011;60269;52.502;16.732;2023-09-18T11:28:23;9.30;;;5.07;;
72319;SDS011;60269;52.502;16.732;2023-09-18T11:31:56;7.22;;;4.55;;
72319;SDS011;60269;52.502;16.732;2023-09-18T11:35:37;8.98;;;4.88;;
72319;SDS011;60269;52.502;16.732;2023-09-18T11:39:10;11.80;;;5.00;;
72319;SDS011;60269;52.502;16.732;2023-09-18T11:43:18;12.43;;;5.03;;
72319;SDS011;60269;52.502;16.732;2023-09-18T11:47:03;11.23;;;8.68;;
72319;SDS011;60269;52.502;16.732;2023-09-18T11:50:38;9.48;;;5.07;;
72319;SDS011;60269;52.502;16.732;2023-09-18T11:54:13;8.30;;;5.07;;
72319;SDS011;60269;52.502;16.732;2023-09-18T11:57:48;11.20;;;4.90;;
72319;SDS011;60269;52.502;16.732;2023-09-18T12:01:21;12.32;;;4.55;;
72319;SDS011;60269;52.502;16.732;2023-09-18T12:04:55;8.45;;;4.70;;
72319;SDS011;60269;52.502;16.732;2023-09-18T12:08:28;9.73;;;7.80;;
72319;SDS011;60269;52.502;16.732;2023-09-18T12:12:05;12.90;;;7.90;;
72319;SDS011;60269;52.502;16.732;2023-09-18T12:15:38;7.88;;;4.78;;
72319;SDS011;60269;52.502;16.732;2023-09-18T12:19:17;10.93;;;5.32;;
72319;SDS011;60269;52.502;16.732;2023-09-18T12:22:50;10.93;;;7.40;;
72319;SDS011;60269;52.502;16.732;2023-09-18T12:26:23;11.13;;;8.63;;
72319;SDS011;60269;52.502;16.732;2023-09-18T12:29:59;14.32;;;10.05;;
72319;SDS011;60269;52.502;16.732;2023-09-18T12:33:35;10.10;;;8.90;;
72319;SDS011;60269;52.502;16.732;2023-09-18T12:37:08;11.13;;;8.20;;
72319;SDS011;60269;52.502;16.732;2023-09-18T12:40:43;9.65;;;8.35;;
72319;SDS011;60269;52.502;16.732;2023-09-18T12:44:18;15.25;;;9.00;;
72319;SDS011;60269;52.502;16.732;2023-09-18T12:47:51;9.98;;;7.72;;
72319;SDS011;60269;52.502;16.732;2023-09-18T12:51:32;11.93;;;7.87;;
72319;SDS011;60269;52.502;16.732;2023-09-18T12:55:05;9.60;;;6.90;;
72319;SDS011;60269;52.502;16.732;2023-09-18T12:58:41;8.48;;;6.60;;
72319;SDS011;60269;52.502;16.732;2023-09-18T13:02:33;9.90;;;7.60;;
72319;SDS011;60269;52.502;16.732;2023-09-18T13:06:06;12.73;;;7.97;;
72319;SDS011;60269;52.502;16.732;2023-09-18T13:09:40;8.90;;;7.32;;
72319;SDS011;60269;52.502;16.732;2023-09-18T13:13:20;9.50;;;7.90;;
72319;SDS011;60269;52.502;16.732;2023-09-18T13:16:53;10.30;;;9.27;;
72319;SDS011;60269;52.502;16.732;2023-09-18T13:20:32;8.80;;;7.63;;
72319;SDS011;60269;52.502;16.732;2023-09-18T13:24:07;11.00;;;7.00;;
72319;SDS011;60269;52.502;16.732;2023-09-18T13:27:39;8.50;;;5.60;;
72319;SDS011;60269;52.502;16.732;2023-09-18T13:31:11;11.00;;;4.77;;
72319;SDS011;60269;52.502;16.732;2023-09-18T13:34:44;10.53;;;4.30;;
72319;SDS011;60269;52.502;16.732;2023-09-18T13:38:17;11.00;;;4.57;;
72319;SDS011;60269;52.502;16.732;2023-09-18T13:41:50;9.52;;;4.47;;
72319;SDS011;60269;52.502;16.732;2023-09-18T13:45:22;9.27;;;5.30;;
72319;SDS011;60269;52.502;16.732;2023-09-18T13:48:54;12.60;;;8.17;;
72319;SDS011;60269;52.502;16.732;2023-09-18T13:52:27;10.25;;;7.32;;
72319;SDS011;60269;52.502;16.732;2023-09-18T13:56:01;13.05;;;8.77;;
72319;SDS011;60269;52.502;16.732;2023-09-18T13:59:34;11.27;;;8.03;;
72319;SDS011;60269;52.502;16.732;2023-09-18T14:03:06;13.73;;;7.63;;
72319;SDS011;60269;52.502;16.732;2023-09-18T14:06:38;12.82;;;7.10;;
72319;SDS011;60269;52.502;16.732;2023-09-18T14:10:11;11.63;;;5.32;;
72319;SDS011;60269;52.502;16.732;2023-09-18T14:13:43;10.67;;;5.77;;
72319;SDS011;60269;52.502;16.732;2023-09-18T14:17:16;12.63;;;5.10;;
72319;SDS011;60269;52.502;16.732;2023-09-18T14:20:49;10.55;;;7.30;;
72319;SDS011;60269;52.502;16.732;2023-09-18T14:24:21;12.75;;;7.63;;
72319;SDS011;60269;52.502;16.732;2023-09-18T14:27:57;13.17;;;8.83;;
72319;SDS011;60269;52.502;16.732;2023-09-18T14:31:29;11.30;;;8.60;;
72319;SDS011;60269;52.502;16.732;2023-09-18T14:35:02;11.50;;;10.30;;
72319;SDS011;60269;52.502;16.732;2023-09-18T14:38:37;12.23;;;10.02;;
72319;SDS011;60269;52.502;16.732;2023-09-18T14:42:09;12.50;;;10.90;;
72319;SDS011;60269;52.502;16.732;2023-09-18T14:45:41;12.47;;;9.60;;
72319;SDS011;60269;52.502;16.732;2023-09-18T14:49:13;12.18;;;8.60;;
72319;SDS011;60269;52.502;16.732;2023-09-18T14:52:45;11.20;;;6.78;;
72319;SDS011;60269;52.502;16.732;2023-09-18T14:56:18;13.47;;;6.97;;
72319;SDS011;60269;52.502;16.732;2023-09-18T14:59:50;16.30;;;6.70;;
72319;SDS011;60269;52.502;16.732;2023-09-18T15:03:22;11.27;;;6.03;;
72319;SDS011;60269;52.502;16.732;2023-09-18T15:06:59;11.80;;;5.82;;
72319;SDS011;60269;52.502;16.732;2023-09-18T15:10:31;10.03;;;5.77;;
72319;SDS011;60269;52.502;16.732;2023-09-18T15:14:03;10.97;;;5.20;;
72319;SDS011;60269;52.502;16.732;2023-09-18T15:17:35;10.85;;;6.20;;
72319;SDS011;60269;52.502;16.732;2023-09-18T15:21:09;15.15;;;5.32;;
72319;SDS011;60269;52.502;16.732;2023-09-18T15:24:42;10.93;;;5.90;;
72319;SDS011;60269;52.502;16.732;2023-09-18T15:28:14;12.30;;;5.60;;
72319;SDS011;60269;52.502;16.732;2023-09-18T15:31:46;11.25;;;5.68;;
72319;SDS011;60269;52.502;16.732;2023-09-18T15:35:22;11.82;;;5.50;;
72319;SDS011;60269;52.502;16.732;2023-09-18T15:38:55;10.83;;;5.53;;
72319;SDS011;60269;52.502;16.732;2023-09-18T15:42:28;9.07;;;5.00;;
72319;SDS011;60269;52.502;16.732;2023-09-18T15:46:00;11.13;;;5.80;;
72319;SDS011;60269;52.502;16.732;2023-09-18T15:49:33;13.20;;;5.70;;
72319;SDS011;60269;52.502;16.732;2023-09-18T15:53:05;10.17;;;5.73;;
72319;SDS011;60269;52.502;16.732;2023-09-18T15:56:37;9.97;;;5.17;;
72319;SDS011;60269;52.502;16.732;2023-09-18T16:00:10;12.80;;;5.78;;
72319;SDS011;60269;52.502;16.732;2023-09-18T16:03:44;12.18;;;5.15;;
72319;SDS011;60269;52.502;16.732;2023-09-18T16:07:19;12.37;;;6.27;;
72319;SDS011;60269;52.502;16.732;2023-09-18T16:10:51;12.13;;;5.77;;
72319;SDS011;60269;52.502;16.732;2023-09-18T16:14:23;10.82;;;5.90;;
72319;SDS011;60269;52.502;16.732;2023-09-18T16:17:55;20.65;;;6.53;;
72319;SDS011;60269;52.502;16.732;2023-09-18T16:21:27;13.47;;;5.70;;
72319;SDS011;60269;52.502;16.732;2023-09-18T16:25:00;12.20;;;5.77;;
72319;SDS011;60269;52.502;16.732;2023-09-18T16:28:32;14.77;;;6.40;;
72319;SDS011;60269;52.502;16.732;2023-09-18T16:32:05;14.40;;;5.57;;
72319;SDS011;60269;52.502;16.732;2023-09-18T16:35:38;14.17;;;6.47;;
72319;SDS011;60269;52.502;16.732;2023-09-18T16:39:10;11.33;;;6.10;;
72319;SDS011;60269;52.502;16.732;2023-09-18T16:42:46;11.77;;;6.47;;
72319;SDS011;60269;52.502;16.732;2023-09-18T16:46:18;11.95;;;6.32;;
72319;SDS011;60269;52.502;16.732;2023-09-18T16:49:50;13.60;;;5.80;;
72319;SDS011;60269;52.502;16.732;2023-09-18T16:53:22;16.70;;;6.63;;
72319;SDS011;60269;52.502;16.732;2023-09-18T16:56:55;20.30;;;6.68;;
72319;SDS011;60269;52.502;16.732;2023-09-18T17:00:27;15.32;;;6.68;;
72319;SDS011;60269;52.502;16.732;2023-09-18T17:03:59;17.23;;;6.43;;
72319;SDS011;60269;52.502;16.732;2023-09-18T17:07:32;12.57;;;6.37;;
72319;SDS011;60269;52.502;16.732;2023-09-18T17:11:04;14.75;;;6.10;;
72319;SDS011;60269;52.502;16.732;2023-09-18T17:14:36;12.73;;;5.97;;
72319;SDS011;60269;52.502;16.732;2023-09-18T17:18:08;15.20;;;6.67;;
72319;SDS011;60269;52.502;16.732;2023-09-18T17:21:42;14.83;;;6.83;;
72319;SDS011;60269;52.502;16.732;2023-09-18T17:25:14;13.15;;;6.80;;
72319;SDS011;60269;52.502;16.732;2023-09-18T17:28:49;16.98;;;7.30;;
72319;SDS011;60269;52.502;16.732;2023-09-18T17:32:21;12.53;;;7.10;;
72319;SDS011;60269;52.502;16.732;2023-09-18T17:35:53;14.00;;;7.80;;
72319;SDS011;60269;52.502;16.732;2023-09-18T17:39:25;14.07;;;7.00;;
72319;SDS011;60269;52.502;16.732;2023-09-18T17:42:57;14.80;;;6.20;;
72319;SDS011;60269;52.502;16.732;2023-09-18T17:46:29;14.10;;;6.53;;
72319;SDS011;60269;52.502;16.732;2023-09-18T17:50:02;11.67;;;6.80;;
72319;SDS011;60269;52.502;16.732;2023-09-18T17:53:35;15.40;;;6.32;;
72319;SDS011;60269;52.502;16.732;2023-09-18T17:57:08;20.27;;;6.88;;
72319;SDS011;60269;52.502;16.732;2023-09-18T18:00:40;12.30;;;6.40;;
72319;SDS011;60269;52.502;16.732;2023-09-18T18:04:13;12.17;;;6.17;;
72319;SDS011;60269;52.502;16.732;2023-09-18T18:07:46;11.52;;;5.85;;
72319;SDS011;60269;52.502;16.732;2023-09-18T18:11:22;14.75;;;5.85;;
72319;SDS011;60269;52.502;16.732;2023-09-18T18:14:53;14.43;;;5.95;;
72319;SDS011;60269;52.502;16.732;2023-09-18T18:18:26;11.53;;;5.60;;
72319;SDS011;60269;52.502;16.732;2023-09-18T18:21:58;15.23;;;5.82;;
72319;SDS011;60269;52.502;16.732;2023-09-18T18:25:30;13.30;;;5.53;;
72319;SDS011;60269;52.502;16.732;2023-09-18T18:29:03;11.67;;;4.90;;
72319;SDS011;60269;52.502;16.732;2023-09-18T18:32:35;17.90;;;5.80;;
72319;SDS011;60269;52.502;16.732;2023-09-18T18:36:08;11.27;;;5.78;;
72319;SDS011;60269;52.502;16.732;2023-09-18T18:39:41;13.85;;;5.30;;
72319;SDS011;60269;52.502;16.732;2023-09-18T18:43:13;12.53;;;5.20;;
72319;SDS011;60269;52.502;16.732;2023-09-18T18:46:49;15.87;;;5.17;;
72319;SDS011;60269;52.502;16.732;2023-09-18T18:50:29;17.98;;;6.60;;
72319;SDS011;60269;52.502;16.732;2023-09-18T18:54:07;13.20;;;5.32;;
72319;SDS011;60269;52.502;16.732;2023-09-18T18:57:39;11.57;;;5.77;;
72319;SDS011;60269;52.502;16.732;2023-09-18T19:01:12;10.47;;;5.43;;
72319;SDS011;60269;52.502;16.732;2023-09-18T19:04:52;11.77;;;5.47;;
72319;SDS011;60269;52.502;16.732;2023-09-18T19:08:26;12.57;;;5.28;;
72319;SDS011;60269;52.502;16.732;2023-09-18T19:11:59;12.57;;;5.20;;
72319;SDS011;60269;52.502;16.732;2023-09-18T19:15:31;15.60;;;5.57;;
72319;SDS011;60269;52.502;16.732;2023-09-18T19:19:03;13.93;;;5.22;;
72319;SDS011;60269;52.502;16.732;2023-09-18T19:22:35;11.25;;;5.43;;
72319;SDS011;60269;52.502;16.732;2023-09-18T19:26:09;13.23;;;4.83;;
72319;SDS011;60269;52.502;16.732;2023-09-18T19:29:42;10.87;;;5.93;;
72319;SDS011;60269;52.502;16.732;2023-09-18T19:33:20;15.65;;;6.35;;
72319;SDS011;60269;52.502;16.732;2023-09-18T19:36:55;11.10;;;5.57;;
72319;SDS011;60269;52.502;16.732;2023-09-18T19:40:41;14.13;;;5.63;;
72319;SDS011;60269;52.502;16.732;2023-09-18T19:44:14;11.17;;;6.47;;
72319;SDS011;60269;52.502;16.732;2023-09-18T19:47:46;11.48;;;5.90;;
72319;SDS011;60269;52.502;16.732;2023-09-18T19:51:20;10.38;;;6.03;;
72319;SDS011;60269;52.502;16.732;2023-09-18T19:54:54;11.57;;;6.07;;
72319;SDS011;60269;52.502;16.732;2023-09-18T19:58:29;14.50;;;6.30;;
72319;SDS011;60269;52.502;16.732;2023-09-18T20:02:08;12.70;;;6.70;;
72319;SDS011;60269;52.502;16.732;2023-09-18T20:05:42;10.18;;;5.63;;
72319;SDS011;60269;52.502;16.732;2023-09-18T20:09:21;11.90;;;6.37;;
72319;SDS011;60269;52.502;16.732;2023-09-18T20:13:12;13.13;;;6.70;;
72319;SDS011;60269;52.502;16.732;2023-09-18T20:16:47;13.90;;;6.47;;
72319;SDS011;60269;52.502;16.732;2023-09-18T20:20:25;12.63;;;5.95;;
72319;SDS011;60269;52.502;16.732;2023-09-18T20:24:17;12.00;;;5.70;;
72319;SDS011;60269;52.502;16.732;2023-09-18T20:27:53;12.13;;;6.97;;
72319;SDS011;60269;52.502;16.732;2023-09-18T20:31:32;14.27;;;6.57;;
72319;SDS011;60269;52.502;16.732;2023-09-18T20:35:18;13.82;;;6.78;;
72319;SDS011;60269;52.502;16.732;2023-09-18T20:38:55;22.03;;;7.33;;
72319;SDS011;60269;52.502;16.732;2023-09-18T20:42:28;12.13;;;6.30;;
72319;SDS011;60269;52.502;16.732;2023-09-18T20:46:02;17.65;;;7.00;;
72319;SDS011;60269;52.502;16.732;2023-09-18T20:49:36;17.40;;;6.32;;
72319;SDS011;60269;52.502;16.732;2023-09-18T20:53:11;14.03;;;7.73;;
72319;SDS011;60269;52.502;16.732;2023-09-18T20:56:50;15.77;;;6.97;;
72319;SDS011;60269;52.502;16.732;2023-09-18T21:00:22;17.65;;;6.97;;